Time;durP1;ratioP1;P1;durP2;ratioP2;P2;SDS_P1;SDS_P2;PMS_P1;PMS_P2;Temp;Humidity;BMP_temperature;BMP_pressure;BME280_temperature;BME280_humidity;BME280_pressure;Samples;Min_cycle;Max_cycle;Signal;HPM_P1;HPM_P2
2023/12/22 00:00:08;;;;;;;1.42;0.75;;;6.80;99.90;;;;;;5017928;28;20426;-73
2023/12/22 00:02:54;;;;;;;1.63;0.80;;;6.80;99.90;;;;;;5010478;28;20587;-73
2023/12/22 00:05:40;;;;;;;1.63;1.20;;;6.80;99.90;;;;;;5014921;28;20419;-74
2023/12/22 00:08:26;;;;;;;1.50;0.70;;;6.70;99.90;;;;;;5017880;28;20429;-74
2023/12/22 00:11:11;;;;;;;1.30;0.70;;;6.60;99.90;;;;;;5017988;28;20215;-73
2023/12/22 00:13:57;;;;;;;2.97;0.90;;;6.60;99.90;;;;;;5016522;28;20278;-74
2023/12/22 00:16:42;;;;;;;1.63;0.70;;;6.70;99.90;;;;;;5016719;28;20477;-73
2023/12/22 00:19:30;;;;;;;1.38;0.60;;;6.60;99.90;;;;;;5012695;28;20425;-74
2023/12/22 00:22:15;;;;;;;1.10;0.50;;;6.60;99.90;;;;;;5014455;28;20212;-73
2023/12/22 00:25:00;;;;;;;1.50;0.70;;;6.60;99.90;;;;;;5030836;22;20593;-72
2023/12/22 00:27:46;;;;;;;1.70;0.73;;;6.70;99.90;;;;;;5020097;28;20434;-73
2023/12/22 00:30:31;;;;;;;1.10;0.50;;;6.70;99.90;;;;;;5013736;28;20576;-71
2023/12/22 00:33:17;;;;;;;1.20;0.70;;;6.70;99.90;;;;;;5014626;28;20441;-71
2023/12/22 00:36:05;;;;;;;1.38;0.70;;;6.70;99.90;;;;;;5009849;28;20279;-70
2023/12/22 00:38:50;;;;;;;2.75;0.70;;;6.70;99.90;;;;;;5015173;28;20277;-70
2023/12/22 00:41:36;;;;;;;1.50;0.60;;;6.80;99.90;;;;;;5017817;28;20220;-70
2023/12/22 00:44:21;;;;;;;2.75;0.60;;;6.70;99.90;;;;;;5020166;28;20506;-70
2023/12/22 00:47:07;;;;;;;6.03;0.80;;;6.70;99.90;;;;;;5010920;28;20228;-70
2023/12/22 00:49:53;;;;;;;2.20;0.70;;;6.60;99.90;;;;;;5009275;28;20426;-70
2023/12/22 00:52:40;;;;;;;1.20;0.70;;;6.50;99.90;;;;;;5024487;28;20208;-70
2023/12/22 00:55:25;;;;;;;2.60;0.70;;;6.50;99.90;;;;;;5017397;28;20234;-70
2023/12/22 00:58:11;;;;;;;3.37;0.60;;;6.50;99.90;;;;;;5025304;28;20225;-70
2023/12/22 01:00:57;;;;;;;4.70;0.70;;;6.50;99.90;;;;;;5023544;28;20943;-70
2023/12/22 01:03:42;;;;;;;1.40;0.70;;;6.50;99.90;;;;;;5015189;28;20413;-70
2023/12/22 01:06:28;;;;;;;1.30;0.67;;;6.60;99.90;;;;;;5001222;28;20450;-70
2023/12/22 01:09:15;;;;;;;2.33;0.80;;;6.60;99.90;;;;;;5018398;28;21008;-71
2023/12/22 01:12:03;;;;;;;1.77;0.70;;;6.50;99.90;;;;;;5027235;28;20426;-70
2023/12/22 01:14:51;;;;;;;1.40;0.70;;;6.50;99.90;;;;;;5016956;28;20481;-70
2023/12/22 01:17:36;;;;;;;1.77;0.60;;;6.50;99.90;;;;;;5025319;28;20467;-70
2023/12/22 01:20:22;;;;;;;1.93;0.63;;;6.50;99.90;;;;;;5020018;28;20220;-70
2023/12/22 01:23:08;;;;;;;2.40;1.43;;;6.50;99.90;;;;;;5015697;28;20434;-70
2023/12/22 01:25:55;;;;;;;1.33;0.70;;;6.50;99.90;;;;;;5009846;28;20824;-70
2023/12/22 01:28:41;;;;;;;1.73;0.80;;;6.40;99.90;;;;;;5015249;28;20422;-71
2023/12/22 01:31:27;;;;;;;1.73;0.82;;;6.50;99.90;;;;;;5020634;28;20577;-71
2023/12/22 01:34:12;;;;;;;1.40;0.80;;;6.50;99.90;;;;;;5020308;28;20698;-70
2023/12/22 01:36:58;;;;;;;3.57;1.50;;;6.50;99.90;;;;;;5014342;28;20223;-70
2023/12/22 01:39:44;;;;;;;1.63;0.70;;;6.70;99.90;;;;;;5011760;28;20515;-70
2023/12/22 01:42:31;;;;;;;1.40;0.60;;;6.70;99.90;;;;;;5012783;28;20427;-70
2023/12/22 01:45:17;;;;;;;1.60;0.80;;;6.80;99.90;;;;;;5024476;28;20454;-71
2023/12/22 01:48:04;;;;;;;1.77;0.77;;;6.80;99.90;;;;;;5018477;28;20726;-70
2023/12/22 01:50:50;;;;;;;1.17;0.70;;;6.70;99.90;;;;;;5018740;28;20207;-70
2023/12/22 01:53:36;;;;;;;1.70;1.10;;;6.70;99.90;;;;;;5009829;28;20413;-70
2023/12/22 01:56:22;;;;;;;1.63;0.60;;;6.70;99.90;;;;;;5023233;28;20608;-70
2023/12/22 01:59:10;;;;;;;2.40;0.80;;;6.60;99.90;;;;;;5011138;28;20215;-70
2023/12/22 02:01:56;;;;;;;3.70;1.00;;;6.60;99.90;;;;;;5017624;28;20547;-70
2023/12/22 02:04:42;;;;;;;2.42;0.70;;;6.50;99.90;;;;;;5018345;28;21056;-70
2023/12/22 02:07:28;;;;;;;1.88;0.82;;;6.50;99.90;;;;;;5015553;28;20197;-71
2023/12/22 02:10:14;;;;;;;1.53;0.77;;;6.50;99.90;;;;;;5008478;28;20202;-70
2023/12/22 02:13:00;;;;;;;3.58;1.10;;;6.50;99.90;;;;;;5017625;28;20765;-71
2023/12/22 02:15:48;;;;;;;2.00;0.70;;;6.50;99.90;;;;;;5009216;28;20269;-70
2023/12/22 02:18:36;;;;;;;5.77;1.00;;;6.50;99.90;;;;;;5015787;28;20468;-70
2023/12/22 02:21:21;;;;;;;3.97;1.10;;;6.60;99.90;;;;;;5023986;28;20517;-72
2023/12/22 02:24:08;;;;;;;2.70;0.93;;;6.60;99.90;;;;;;5016951;28;20430;-69
2023/12/22 02:27:01;;;;;;;2.43;0.93;;;6.70;99.90;;;;;;5010683;28;20463;-71
2023/12/22 02:29:50;;;;;;;2.97;1.10;;;6.80;99.90;;;;;;5010888;28;20438;-70
2023/12/22 02:32:39;;;;;;;1.73;0.80;;;6.90;99.90;;;;;;5007512;28;20442;-71
2023/12/22 02:35:27;;;;;;;1.50;0.85;;;6.80;99.90;;;;;;5025651;28;20450;-70
2023/12/22 02:38:14;;;;;;;3.73;1.10;;;6.80;99.90;;;;;;5017623;28;20294;-70
2023/12/22 02:41:01;;;;;;;3.10;1.30;;;6.70;99.90;;;;;;5019988;28;20796;-70
2023/12/22 02:43:47;;;;;;;3.10;2.23;;;6.70;99.90;;;;;;5018262;28;20449;-71
2023/12/22 02:46:33;;;;;;;5.13;1.65;;;6.60;99.90;;;;;;5018784;28;20445;-70
2023/12/22 02:49:19;;;;;;;4.20;1.50;;;6.60;99.90;;;;;;5009609;28;20238;-71
2023/12/22 02:52:05;;;;;;;4.07;1.77;;;6.70;99.90;;;;;;5009317;28;20429;-71
2023/12/22 02:54:51;;;;;;;6.35;2.25;;;6.70;99.90;;;;;;5014224;28;20224;-70
2023/12/22 02:57:38;;;;;;;2.03;1.70;;;6.70;99.90;;;;;;5004129;28;20282;-70
2023/12/22 03:00:23;;;;;;;5.47;1.80;;;6.70;99.90;;;;;;5021111;28;20429;-70
2023/12/22 03:03:09;;;;;;;4.13;1.67;;;6.70;99.90;;;;;;5012495;28;20427;-70
2023/12/22 03:05:54;;;;;;;3.25;1.42;;;6.70;99.90;;;;;;5010832;28;21021;-70
2023/12/22 03:08:40;;;;;;;4.97;2.13;;;6.70;99.90;;;;;;5006560;28;20778;-70
2023/12/22 03:11:26;;;;;;;6.60;1.90;;;6.70;99.90;;;;;;5021189;28;20796;-71
2023/12/22 03:14:13;;;;;;;4.90;1.70;;;6.70;99.90;;;;;;5009683;28;20422;-70
2023/12/22 03:16:58;;;;;;;2.60;1.70;;;6.70;99.90;;;;;;5014678;28;20969;-70
2023/12/22 03:19:44;;;;;;;4.53;1.70;;;6.70;99.90;;;;;;5014966;28;20213;-70
2023/12/22 03:22:29;;;;;;;6.70;2.53;;;6.70;99.90;;;;;;5020912;28;20203;-70
2023/12/22 03:25:15;;;;;;;8.68;1.70;;;6.70;99.90;;;;;;5016315;28;20233;-70
2023/12/22 03:28:01;;;;;;;2.60;1.60;;;6.70;99.90;;;;;;5011144;28;20561;-70
2023/12/22 03:30:48;;;;;;;2.90;1.45;;;6.70;99.90;;;;;;5009013;28;20918;-70
2023/12/22 03:33:33;;;;;;;2.87;1.70;;;6.60;99.90;;;;;;5017300;28;20242;-71
2023/12/22 03:36:19;;;;;;;4.67;1.30;;;6.60;99.90;;;;;;5017949;28;20450;-70
2023/12/22 03:39:05;;;;;;;2.00;1.42;;;6.60;99.90;;;;;;5021251;28;20468;-70
2023/12/22 03:41:50;;;;;;;5.88;1.70;;;6.70;99.90;;;;;;5015931;28;20261;-70
2023/12/22 03:44:36;;;;;;;6.53;1.88;;;6.70;99.90;;;;;;5019799;28;20280;-70
2023/12/22 03:47:23;;;;;;;5.80;1.85;;;6.70;99.90;;;;;;5016911;28;20224;-71
2023/12/22 03:50:09;;;;;;;4.53;1.60;;;6.70;99.90;;;;;;5017289;28;20209;-70
2023/12/22 03:52:56;;;;;;;3.67;1.80;;;6.70;99.90;;;;;;5007590;28;20228;-70
2023/12/22 03:55:41;;;;;;;10.00;1.92;;;6.70;99.90;;;;;;5012510;28;20454;-70
2023/12/22 03:58:27;;;;;;;3.83;2.30;;;6.70;99.90;;;;;;5014102;28;20342;-70
2023/12/22 04:01:15;;;;;;;6.63;2.40;;;6.70;99.90;;;;;;5013939;28;20436;-70
2023/12/22 04:04:02;;;;;;;5.78;2.13;;;6.60;99.90;;;;;;5011957;28;20698;-70
2023/12/22 04:06:48;;;;;;;6.70;2.03;;;6.60;99.90;;;;;;5017993;28;20252;-71
2023/12/22 04:09:34;;;;;;;3.45;1.60;;;6.70;99.90;;;;;;5018626;28;20731;-71
2023/12/22 04:12:20;;;;;;;6.20;1.40;;;6.70;99.90;;;;;;5027947;28;20585;-70
2023/12/22 04:15:07;;;;;;;5.38;1.55;;;6.70;99.90;;;;;;5012128;28;20670;-69
2023/12/22 04:17:52;;;;;;;6.07;1.23;;;6.80;99.90;;;;;;5023571;28;20216;-71
2023/12/22 04:20:39;;;;;;;4.13;1.30;;;6.80;99.90;;;;;;5009858;28;20210;-70
2023/12/22 04:23:25;;;;;;;3.83;1.67;;;7.00;99.90;;;;;;5025506;28;20203;-73
2023/12/22 04:26:10;;;;;;;5.68;1.52;;;6.90;99.90;;;;;;5014267;28;20590;-74
2023/12/22 04:28:56;;;;;;;5.30;1.40;;;6.80;99.90;;;;;;5026257;28;20573;-72
2023/12/22 04:31:42;;;;;;;4.37;1.50;;;6.70;99.90;;;;;;5023951;28;20273;-72
2023/12/22 04:34:27;;;;;;;3.67;1.20;;;6.70;99.90;;;;;;5021098;28;20507;-73
2023/12/22 04:37:15;;;;;;;7.95;3.58;;;6.70;99.90;;;;;;5019013;28;20205;-72
2023/12/22 04:40:00;;;;;;;3.10;1.33;;;6.70;99.90;;;;;;5022471;28;20211;-69
2023/12/22 04:42:45;;;;;;;3.88;1.40;;;6.60;99.90;;;;;;5029488;28;20357;-70
2023/12/22 04:45:31;;;;;;;4.63;1.58;;;6.60;99.90;;;;;;5026309;28;20231;-72
2023/12/22 04:48:17;;;;;;;2.92;1.23;;;6.60;99.90;;;;;;5021406;28;20202;-71
2023/12/22 04:51:03;;;;;;;5.28;1.60;;;6.60;99.90;;;;;;5012870;28;20203;-72
2023/12/22 04:53:49;;;;;;;6.37;2.40;;;6.60;99.90;;;;;;5022599;28;20210;-72
2023/12/22 04:56:35;;;;;;;6.97;2.20;;;6.70;99.90;;;;;;5025704;28;20441;-71
2023/12/22 04:59:20;;;;;;;3.88;1.33;;;6.70;99.90;;;;;;5025974;28;20577;-72
2023/12/22 05:02:06;;;;;;;5.37;1.93;;;6.80;99.90;;;;;;5016948;28;20206;-72
2023/12/22 05:04:52;;;;;;;5.43;1.60;;;6.80;99.90;;;;;;5017309;28;20434;-72
2023/12/22 05:07:37;;;;;;;4.17;1.40;;;6.80;99.90;;;;;;5023108;28;20567;-75
2023/12/22 05:10:24;;;;;;;5.07;1.35;;;6.80;99.90;;;;;;5022352;28;20420;-71
2023/12/22 05:13:10;;;;;;;7.22;1.60;;;6.70;99.90;;;;;;5021652;28;20246;-72
2023/12/22 05:15:56;;;;;;;7.53;1.88;;;6.70;99.90;;;;;;5024592;28;20230;-72
2023/12/22 05:18:42;;;;;;;4.43;1.38;;;6.80;99.90;;;;;;5019539;28;20241;-71
2023/12/22 05:21:28;;;;;;;2.67;1.17;;;6.70;99.90;;;;;;5008792;28;20581;-71
2023/12/22 05:24:13;;;;;;;6.03;1.38;;;6.70;99.90;;;;;;5022276;28;20431;-71
2023/12/22 05:27:00;;;;;;;7.88;1.42;;;6.80;99.90;;;;;;5026318;28;20243;-72
2023/12/22 05:29:46;;;;;;;3.63;1.70;;;6.80;99.90;;;;;;5014087;28;20211;-71
2023/12/22 05:32:31;;;;;;;5.53;1.43;;;6.80;99.90;;;;;;5014212;28;20203;-71
2023/12/22 05:35:17;;;;;;;5.90;1.33;;;6.90;99.90;;;;;;5018777;28;20458;-71
2023/12/22 05:38:03;;;;;;;5.55;1.52;;;6.90;99.90;;;;;;5028816;28;20478;-74
2023/12/22 05:40:49;;;;;;;3.40;1.30;;;6.80;99.90;;;;;;5015622;28;20211;-71
2023/12/22 05:43:36;;;;;;;2.78;1.15;;;6.80;99.90;;;;;;5012167;28;20277;-71
2023/12/22 05:46:22;;;;;;;3.67;1.47;;;6.80;99.90;;;;;;5024462;28;20595;-71
2023/12/22 05:49:07;;;;;;;5.72;1.17;;;6.80;99.90;;;;;;5016417;28;20508;-71
2023/12/22 05:51:53;;;;;;;10.15;1.92;;;6.70;99.90;;;;;;5025129;28;20257;-71
2023/12/22 05:54:39;;;;;;;9.60;1.60;;;6.70;99.90;;;;;;5031896;28;20257;-71
2023/12/22 05:57:26;;;;;;;6.10;1.80;;;6.70;99.90;;;;;;5016551;28;20747;-72
2023/12/22 06:00:15;;;;;;;6.00;1.57;;;6.60;99.90;;;;;;5023004;28;20211;-71
2023/12/22 06:03:02;;;;;;;8.52;2.00;;;6.70;99.90;;;;;;5025945;28;20448;-71
2023/12/22 06:05:48;;;;;;;3.50;1.75;;;6.60;99.90;;;;;;5025489;28;20230;-71
2023/12/22 06:08:33;;;;;;;8.23;1.63;;;6.60;99.90;;;;;;5017413;28;20321;-71
2023/12/22 06:11:19;;;;;;;5.82;1.45;;;6.60;99.90;;;;;;5020541;28;20210;-72
2023/12/22 06:14:05;;;;;;;8.23;1.67;;;6.60;99.90;;;;;;5020193;28;20211;-73
2023/12/22 06:16:53;;;;;;;4.72;1.48;;;6.70;99.90;;;;;;5030104;28;20310;-71
2023/12/22 06:19:39;;;;;;;6.93;1.90;;;6.70;99.90;;;;;;5018828;28;20549;-71
2023/12/22 06:22:24;;;;;;;7.30;1.80;;;6.70;99.90;;;;;;5016619;28;20209;-71
2023/12/22 06:25:10;;;;;;;5.75;1.60;;;6.70;99.90;;;;;;5021651;28;20309;-72
2023/12/22 06:27:56;;;;;;;7.55;1.65;;;6.80;99.90;;;;;;5016368;28;20212;-72
2023/12/22 06:30:42;;;;;;;6.32;1.55;;;6.80;99.90;;;;;;5009039;28;20265;-72
2023/12/22 06:33:29;;;;;;;3.67;1.67;;;6.90;99.90;;;;;;5025547;28;20724;-72
2023/12/22 06:36:21;;;;;;;7.20;1.73;;;6.90;99.90;;;;;;5025024;28;20236;-72
2023/12/22 06:39:07;;;;;;;5.67;1.67;;;6.90;99.90;;;;;;5017531;28;21070;-72
2023/12/22 06:41:53;;;;;;;6.83;1.47;;;7.00;99.90;;;;;;5015299;28;20429;-71
2023/12/22 06:44:38;;;;;;;3.77;1.40;;;7.00;99.90;;;;;;5017979;28;20987;-72
2023/12/22 06:47:25;;;;;;;9.70;1.70;;;7.00;99.90;;;;;;5016069;28;20939;-72
2023/12/22 06:50:12;;;;;;;7.47;1.65;;;7.10;99.90;;;;;;5019167;28;20421;-72
2023/12/22 06:52:58;;;;;;;5.50;1.60;;;7.10;99.90;;;;;;5023009;28;20205;-72
2023/12/22 06:55:44;;;;;;;6.97;2.30;;;7.10;99.90;;;;;;5028419;28;20220;-72
2023/12/22 06:58:29;;;;;;;8.15;2.78;;;7.20;99.90;;;;;;5020381;28;20461;-71
2023/12/22 07:01:20;;;;;;;8.35;2.00;;;7.20;99.90;;;;;;5025323;28;20222;-73
2023/12/22 07:04:06;;;;;;;9.53;3.43;;;7.20;99.90;;;;;;5012678;28;20275;-73
2023/12/22 07:06:53;;;;;;;10.43;3.78;;;7.30;99.90;;;;;;5021219;28;20463;-71
2023/12/22 07:09:39;;;;;;;11.50;2.70;;;7.30;99.90;;;;;;5013002;28;20270;-72
2023/12/22 07:12:25;;;;;;;6.10;1.93;;;7.30;99.90;;;;;;5023493;28;20494;-72
2023/12/22 07:15:10;;;;;;;12.73;3.20;;;7.30;99.90;;;;;;5021108;28;20447;-72
2023/12/22 07:17:56;;;;;;;5.00;2.20;;;7.30;99.90;;;;;;5024075;28;20799;-72
2023/12/22 07:20:41;;;;;;;6.13;1.80;;;7.40;99.90;;;;;;5012117;28;20441;-72
2023/12/22 07:23:28;;;;;;;12.18;2.47;;;7.40;99.90;;;;;;5017637;28;20427;-73
2023/12/22 07:26:14;;;;;;;12.37;2.90;;;7.40;99.90;;;;;;5023426;28;20235;-72
2023/12/22 07:28:59;;;;;;;5.43;3.07;;;7.40;99.90;;;;;;5013956;28;20426;-72
2023/12/22 07:31:45;;;;;;;15.00;5.97;;;7.50;99.90;;;;;;5014428;28;20434;-72
2023/12/22 07:34:30;;;;;;;10.23;2.67;;;7.50;99.90;;;;;;5025923;28;20431;-72
2023/12/22 07:37:16;;;;;;;11.80;3.80;;;7.60;99.90;;;;;;5018061;28;20580;-72
2023/12/22 07:40:04;;;;;;;10.40;3.05;;;7.60;99.90;;;;;;5019895;28;20490;-72
2023/12/22 07:42:50;;;;;;;8.13;2.50;;;7.60;99.90;;;;;;5021716;28;20222;-73
2023/12/22 07:45:36;;;;;;;10.10;3.90;;;7.60;99.90;;;;;;5015983;28;20453;-72
2023/12/22 07:48:21;;;;;;;8.50;1.80;;;7.70;99.90;;;;;;5023669;28;20423;-72
2023/12/22 07:51:07;;;;;;;8.30;2.10;;;7.70;99.90;;;;;;5021475;28;20454;-71
2023/12/22 07:53:52;;;;;;;11.60;3.83;;;7.70;99.90;;;;;;5028301;28;20442;-73
2023/12/22 07:56:39;;;;;;;6.33;2.20;;;7.80;99.90;;;;;;5018887;28;20429;-72
2023/12/22 07:59:25;;;;;;;6.60;2.50;;;7.80;99.90;;;;;;5021632;28;20461;-71
2023/12/22 08:02:11;;;;;;;5.80;2.10;;;7.80;99.90;;;;;;5032027;28;20207;-72
2023/12/22 08:04:58;;;;;;;14.00;1.90;;;7.90;99.90;;;;;;5029845;28;20961;-72
2023/12/22 08:07:43;;;;;;;13.77;4.80;;;7.90;99.90;;;;;;5034064;28;20209;-71
2023/12/22 08:10:29;;;;;;;7.70;3.72;;;7.90;99.90;;;;;;5028023;28;20664;-71
2023/12/22 08:13:17;;;;;;;7.57;3.60;;;8.00;99.90;;;;;;5021609;28;20215;-72
2023/12/22 08:16:03;;;;;;;7.63;2.58;;;8.00;99.90;;;;;;5024165;28;20458;-72
2023/12/22 08:18:49;;;;;;;12.27;3.60;;;8.00;99.90;;;;;;5027396;28;20356;-72
2023/12/22 08:21:35;;;;;;;2.87;1.70;;;8.10;99.90;;;;;;5016722;28;20697;-72
2023/12/22 08:24:20;;;;;;;5.43;1.87;;;8.00;99.90;;;;;;5028194;28;20455;-73
2023/12/22 08:27:07;;;;;;;17.35;5.55;;;8.00;99.90;;;;;;5025571;28;21010;-72
2023/12/22 08:29:54;;;;;;;46.45;15.82;;;8.10;99.90;;;;;;5015645;28;20208;-73
2023/12/22 08:32:39;;;;;;;17.63;5.40;;;8.10;99.90;;;;;;5025496;28;20206;-71
2023/12/22 08:35:25;;;;;;;20.50;7.50;;;8.10;99.90;;;;;;5020914;28;20591;-71
2023/12/22 08:38:13;;;;;;;7.40;2.20;;;8.10;99.90;;;;;;5024357;28;20434;-71
2023/12/22 08:40:58;;;;;;;11.23;3.50;;;8.10;99.90;;;;;;5025663;28;20442;-73
2023/12/22 08:43:44;;;;;;;18.97;6.30;;;8.20;99.90;;;;;;5018026;28;20901;-71
2023/12/22 08:46:31;;;;;;;16.97;5.50;;;8.20;99.90;;;;;;5021260;28;20448;-71
2023/12/22 08:49:17;;;;;;;8.27;2.72;;;8.20;99.90;;;;;;5024119;28;20934;-71
2023/12/22 08:52:03;;;;;;;11.40;4.33;;;8.10;99.90;;;;;;5019269;28;20350;-71
2023/12/22 08:54:49;;;;;;;78.43;22.20;;;8.20;99.90;;;;;;5028315;28;20453;-73
2023/12/22 08:57:34;;;;;;;28.00;8.67;;;8.10;99.90;;;;;;5029804;28;20207;-72
2023/12/22 09:00:21;;;;;;;19.30;5.73;;;8.10;99.90;;;;;;5024913;28;20528;-72
2023/12/22 09:03:07;;;;;;;21.40;7.37;;;8.00;99.90;;;;;;5018036;28;20548;-72
2023/12/22 09:05:53;;;;;;;31.37;10.07;;;8.00;99.90;;;;;;5030100;28;20445;-73
2023/12/22 09:08:38;;;;;;;73.77;22.33;;;8.00;99.90;;;;;;5028499;28;20482;-71
2023/12/22 09:11:25;;;;;;;28.60;7.73;;;8.00;99.90;;;;;;5027471;28;20525;-72
2023/12/22 09:14:10;;;;;;;31.97;10.37;;;8.00;99.90;;;;;;5031255;28;20438;-72
2023/12/22 09:16:56;;;;;;;12.20;5.10;;;8.00;99.90;;;;;;5028813;28;20554;-71
2023/12/22 09:19:43;;;;;;;15.50;4.40;;;8.00;99.90;;;;;;5007552;28;20564;-73
2023/12/22 09:22:28;;;;;;;26.50;6.70;;;8.00;99.90;;;;;;5023616;28;20425;-71
2023/12/22 09:25:14;;;;;;;17.42;5.35;;;8.10;99.90;;;;;;5019396;28;20443;-72
2023/12/22 09:27:59;;;;;;;26.30;7.20;;;8.20;99.90;;;;;;5025019;28;20713;-73
2023/12/22 09:30:45;;;;;;;11.57;4.60;;;8.20;99.90;;;;;;5021099;28;20427;-71
2023/12/22 09:33:31;;;;;;;7.13;3.33;;;8.10;99.90;;;;;;5022198;28;20442;-72
2023/12/22 09:36:18;;;;;;;9.23;2.83;;;8.20;99.90;;;;;;5024523;28;21016;-72
2023/12/22 09:39:04;;;;;;;9.00;3.93;;;8.10;99.90;;;;;;5023659;28;20732;-72
2023/12/22 09:41:50;;;;;;;7.50;3.27;;;8.20;99.90;;;;;;5029952;28;20431;-72
2023/12/22 09:44:37;;;;;;;11.23;2.43;;;8.20;99.90;;;;;;5027460;28;20419;-72
2023/12/22 09:47:24;;;;;;;12.93;2.20;;;8.30;99.90;;;;;;5030930;28;20411;-72
2023/12/22 09:50:10;;;;;;;8.47;2.80;;;8.20;99.90;;;;;;5023670;28;20985;-71
2023/12/22 09:52:58;;;;;;;10.30;2.30;;;8.20;99.90;;;;;;5022269;28;20428;-72
2023/12/22 09:55:47;;;;;;;13.50;3.20;;;8.20;99.90;;;;;;5017856;28;20444;-72
2023/12/22 09:58:35;;;;;;;9.83;2.80;;;8.30;99.90;;;;;;5027401;28;20530;-73
2023/12/22 10:01:23;;;;;;;15.50;2.77;;;8.30;99.90;;;;;;5029697;28;20434;-72
2023/12/22 10:04:09;;;;;;;11.60;3.03;;;8.30;99.90;;;;;;5029986;28;20404;-71
2023/12/22 10:07:00;;;;;;;10.83;2.77;;;8.30;99.90;;;;;;5027294;28;20447;-74
2023/12/22 10:09:48;;;;;;;10.57;3.00;;;8.30;99.90;;;;;;5019504;28;20422;-72
2023/12/22 10:12:35;;;;;;;10.37;4.77;;;8.30;99.90;;;;;;5016173;28;20414;-72
2023/12/22 10:15:23;;;;;;;17.80;6.27;;;8.40;99.90;;;;;;5027780;28;20595;-71
2023/12/22 10:18:10;;;;;;;13.03;3.10;;;8.40;99.90;;;;;;5025626;28;20429;-72
2023/12/22 10:20:55;;;;;;;8.20;2.50;;;8.40;99.90;;;;;;5024243;28;20813;-71
2023/12/22 10:23:41;;;;;;;14.83;3.27;;;8.50;99.90;;;;;;5019741;28;20427;-72
2023/12/22 10:26:29;;;;;;;18.30;3.80;;;8.50;99.90;;;;;;5027565;28;21016;-72
2023/12/22 10:29:15;;;;;;;18.40;4.63;;;8.50;99.90;;;;;;5012963;28;20773;-72
2023/12/22 10:32:02;;;;;;;23.20;3.60;;;8.60;99.90;;;;;;5024262;28;20416;-72
2023/12/22 10:34:48;;;;;;;14.93;3.60;;;8.60;99.90;;;;;;5021202;28;20476;-72
2023/12/22 10:37:34;;;;;;;19.47;4.00;;;8.70;99.90;;;;;;5028017;28;20920;-73
2023/12/22 10:40:20;;;;;;;14.93;2.90;;;8.70;99.90;;;;;;5028744;28;20565;-73
2023/12/22 10:43:07;;;;;;;20.17;3.50;;;8.70;99.90;;;;;;5029399;28;20435;-73
2023/12/22 10:45:53;;;;;;;19.37;7.50;;;8.70;99.90;;;;;;5021126;28;20440;-72
2023/12/22 10:48:39;;;;;;;13.00;3.90;;;8.80;99.90;;;;;;5025287;28;20427;-72
2023/12/22 10:51:24;;;;;;;21.17;4.57;;;8.80;99.90;;;;;;5022819;28;20527;-72
2023/12/22 10:54:10;;;;;;;17.00;4.20;;;8.90;99.90;;;;;;5026625;28;20430;-73
2023/12/22 10:56:59;;;;;;;18.70;4.20;;;8.90;99.90;;;;;;5028333;28;20454;-73
2023/12/22 10:59:47;;;;;;;28.40;6.77;;;8.90;99.90;;;;;;5015486;28;20467;-72
2023/12/22 11:02:35;;;;;;;20.37;4.30;;;8.90;99.90;;;;;;5020527;28;20996;-72
2023/12/22 11:05:26;;;;;;;12.83;3.33;;;9.00;99.90;;;;;;5027224;28;20512;-72
2023/12/22 11:08:13;;;;;;;20.17;4.20;;;8.90;99.90;;;;;;5027028;28;20796;-72
2023/12/22 11:11:05;;;;;;;13.43;3.80;;;8.90;99.90;;;;;;5028654;28;20405;-72
2023/12/22 11:13:52;;;;;;;17.03;4.23;;;9.00;99.90;;;;;;5020162;28;20506;-72
2023/12/22 11:16:46;;;;;;;21.30;3.90;;;8.90;99.90;;;;;;5028847;28;20437;-72
2023/12/22 11:19:35;;;;;;;18.70;5.27;;;9.00;99.90;;;;;;5011342;28;20399;-71
2023/12/22 11:22:22;;;;;;;16.63;4.40;;;9.00;99.90;;;;;;5021116;28;21079;-72
2023/12/22 11:25:09;;;;;;;39.03;5.87;;;9.00;99.90;;;;;;5027662;28;20460;-72
2023/12/22 11:27:58;;;;;;;17.53;3.73;;;9.00;99.90;;;;;;5028765;28;20435;-72
2023/12/22 11:30:45;;;;;;;26.27;3.90;;;9.00;99.90;;;;;;5026325;28;20422;-72
2023/12/22 11:33:32;;;;;;;10.87;3.17;;;9.10;99.90;;;;;;5023297;28;20416;-73
2023/12/22 11:36:19;;;;;;;16.57;4.00;;;9.10;99.90;;;;;;5021147;28;20451;-72
2023/12/22 11:39:05;;;;;;;25.23;6.53;;;9.10;99.90;;;;;;5028835;28;20551;-73
2023/12/22 11:41:52;;;;;;;17.90;4.73;;;9.20;99.90;;;;;;5022971;28;21231;-71
2023/12/22 11:44:37;;;;;;;16.23;4.90;;;9.10;99.90;;;;;;5016779;28;20408;-72
2023/12/22 11:47:24;;;;;;;17.00;3.70;;;9.20;99.90;;;;;;5028900;28;20442;-72
2023/12/22 11:50:11;;;;;;;10.40;3.43;;;9.10;99.90;;;;;;5024201;28;20489;-72
2023/12/22 11:52:57;;;;;;;12.37;3.10;;;9.10;99.90;;;;;;5013870;28;20423;-71
2023/12/22 11:56:05;;;;;;;12.87;3.70;;;9.10;99.90;;;;;;5018156;28;20447;-72
2023/12/22 11:58:54;;;;;;;17.40;3.90;;;9.10;99.90;;;;;;5029927;28;20450;-71
2023/12/22 12:01:39;;;;;;;11.00;3.60;;;9.10;99.90;;;;;;5029560;28;20471;-72
2023/12/22 12:04:26;;;;;;;11.30;3.30;;;9.00;99.90;;;;;;5029526;28;20962;-72
2023/12/22 12:07:43;;;;;;;22.70;7.60;;;9.00;99.90;;;;;;5030041;28;20575;-71
2023/12/22 12:10:53;;;;;;;16.80;4.53;;;9.00;99.90;;;;;;5014288;28;20419;-72
2023/12/22 12:13:44;;;;;;;25.03;6.10;;;8.90;99.90;;;;;;5029485;28;20425;-71
2023/12/22 12:16:30;;;;;;;8.43;3.93;;;9.00;99.90;;;;;;5026713;28;20451;-71
2023/12/22 12:19:16;;;;;;;12.17;3.33;;;9.00;99.90;;;;;;5025522;28;20437;-71
2023/12/22 12:22:02;;;;;;;11.90;3.60;;;9.00;99.90;;;;;;5016640;28;20473;-72
2023/12/22 12:24:49;;;;;;;13.80;3.17;;;9.00;99.90;;;;;;5001899;28;20435;-71
2023/12/22 12:27:36;;;;;;;11.10;2.37;;;9.00;99.90;;;;;;5041727;23;20572;-88
2023/12/22 12:30:22;;;;;;;11.73;3.10;;;9.00;99.90;;;;;;5043248;28;20423;-89
2023/12/22 12:33:08;;;;;;;7.57;1.93;;;9.00;99.90;;;;;;5037573;28;20459;-88
2023/12/22 12:35:56;;;;;;;10.20;2.50;;;9.10;99.90;;;;;;5042273;28;20532;-88
2023/12/22 12:38:49;;;;;;;6.93;2.27;;;9.10;99.90;;;;;;5068026;28;20426;-89
2023/12/22 12:41:44;;;;;;;9.23;1.73;;;9.10;99.90;;;;;;5043288;28;20482;-87
2023/12/22 12:44:32;;;;;;;6.83;1.67;;;9.20;99.90;;;;;;5049586;28;20978;-88
2023/12/22 12:47:17;;;;;;;6.90;2.30;;;9.20;99.90;;;;;;5046891;28;20459;-88
2023/12/22 12:50:03;;;;;;;5.43;1.33;;;9.20;99.90;;;;;;5041005;28;20435;-88
2023/12/22 12:52:50;;;;;;;3.40;1.47;;;9.20;99.90;;;;;;5051624;28;20416;-88
2023/12/22 12:55:36;;;;;;;4.90;1.70;;;9.30;99.90;;;;;;5035673;28;20431;-87
2023/12/22 12:58:27;;;;;;;6.27;1.50;;;9.40;99.90;;;;;;5052331;28;20962;-88
2023/12/22 13:01:15;;;;;;;5.10;1.57;;;9.40;99.90;;;;;;5043183;28;20460;-88
2023/12/22 13:04:01;;;;;;;2.50;1.00;;;9.40;99.90;;;;;;5035913;28;20483;-88
2023/12/22 13:06:46;;;;;;;5.57;1.53;;;9.50;99.90;;;;;;5051510;28;20424;-88
2023/12/22 13:09:34;;;;;;;2.83;1.20;;;9.40;99.90;;;;;;5043021;28;20428;-88
2023/12/22 13:12:19;;;;;;;4.30;1.80;;;9.50;99.90;;;;;;5038907;28;20915;-87
2023/12/22 13:15:09;;;;;;;2.47;1.20;;;9.50;99.90;;;;;;5060770;28;20437;-88
2023/12/22 13:17:55;;;;;;;1.63;0.90;;;9.50;99.90;;;;;;5057325;28;20430;-89
2023/12/22 13:20:40;;;;;;;4.03;1.10;;;9.50;99.90;;;;;;5045912;28;20824;-88
2023/12/22 13:23:26;;;;;;;5.63;1.10;;;9.60;99.90;;;;;;5067593;28;20438;-87
2023/12/22 13:26:19;;;;;;;2.13;1.27;;;9.60;99.90;;;;;;5038156;28;20512;-88
2023/12/22 13:29:05;;;;;;;2.30;1.00;;;9.60;99.90;;;;;;5052078;28;20433;-88
2023/12/22 13:31:52;;;;;;;2.60;1.10;;;9.60;99.90;;;;;;5043019;28;20471;-88
2023/12/22 13:34:37;;;;;;;3.20;1.47;;;9.60;99.90;;;;;;5040253;28;20425;-88
2023/12/22 13:37:26;;;;;;;2.30;1.00;;;9.60;99.90;;;;;;5038157;28;20486;-88
2023/12/22 13:40:13;;;;;;;3.93;1.07;;;9.60;99.90;;;;;;5044930;28;20493;-88
2023/12/22 13:42:59;;;;;;;2.60;1.10;;;9.60;99.90;;;;;;5050343;28;20438;-88
2023/12/22 13:45:50;;;;;;;2.90;1.17;;;9.60;99.90;;;;;;5037064;28;20974;-88
2023/12/22 13:48:37;;;;;;;3.50;1.67;;;9.60;99.90;;;;;;5040886;28;20453;-88
2023/12/22 13:51:22;;;;;;;2.90;1.13;;;9.70;99.90;;;;;;5045181;28;20512;-88
2023/12/22 13:54:09;;;;;;;1.60;1.00;;;9.70;99.90;;;;;;5040777;28;20439;-88
2023/12/22 13:56:54;;;;;;;1.90;0.90;;;9.70;99.90;;;;;;5048953;28;20990;-87
2023/12/22 13:59:40;;;;;;;2.20;1.13;;;9.70;99.90;;;;;;5046172;28;20927;-88
2023/12/22 14:02:26;;;;;;;2.33;1.00;;;9.70;99.90;;;;;;5053243;28;20477;-89
2023/12/22 14:05:13;;;;;;;5.03;1.30;;;9.70;99.90;;;;;;5045834;28;20851;-88
2023/12/22 14:07:58;;;;;;;2.87;1.23;;;9.70;99.90;;;;;;5042445;28;20463;-88
2023/12/22 14:10:48;;;;;;;4.00;1.10;;;9.70;99.90;;;;;;5036558;28;20396;-88
2023/12/22 14:13:35;;;;;;;3.40;1.23;;;9.70;99.90;;;;;;5057796;28;20840;-88
2023/12/22 14:16:21;;;;;;;3.70;1.40;;;9.80;99.90;;;;;;5047686;28;20545;-88
2023/12/22 14:19:06;;;;;;;2.00;1.10;;;9.80;99.90;;;;;;5043477;28;20475;-87
2023/12/22 14:21:53;;;;;;;2.93;1.23;;;9.80;99.90;;;;;;5043755;28;20474;-88
2023/12/22 14:24:39;;;;;;;1.20;0.70;;;9.80;99.90;;;;;;5047008;28;20509;-88
2023/12/22 14:27:25;;;;;;;1.60;0.97;;;9.80;99.90;;;;;;5055661;28;20543;-88
2023/12/22 14:30:12;;;;;;;3.43;1.10;;;9.80;99.90;;;;;;5063449;28;20432;-88
2023/12/22 14:32:58;;;;;;;2.07;0.73;;;9.80;99.90;;;;;;5064546;28;20459;-88